sensor_id;sensor_type;location;lat;lon;timestamp;pressure;altitude;pressure_sealevel;temperature;humidity
14393;BME280;7281;42.678;23.372;2023-03-03T00:01:51;95165.31;;;9.67;50.46
14393;BME280;7281;42.678;23.372;2023-03-03T00:04:19;95168.59;;;9.57;50.22
14393;BME280;7281;42.678;23.372;2023-03-03T00:06:47;95164.63;;;9.55;50.71
14393;BME280;7281;42.678;23.372;2023-03-03T00:09:13;95162.44;;;9.47;51.00
14393;BME280;7281;42.678;23.372;2023-03-03T00:11:40;95157.13;;;9.42;50.86
14393;BME280;7281;42.678;23.372;2023-03-03T00:14:21;95158.19;;;9.62;50.41
14393;BME280;7281;42.678;23.372;2023-03-03T00:16:49;95155.25;;;9.80;50.19
14393;BME280;7281;42.678;23.372;2023-03-03T00:19:17;95147.06;;;9.72;50.60
14393;BME280;7281;42.678;23.372;2023-03-03T00:21:46;95126.00;;;9.62;50.32
14393;BME280;7281;42.678;23.372;2023-03-03T00:24:24;95164.31;;;9.73;50.46
14393;BME280;7281;42.678;23.372;2023-03-03T00:27:00;95129.63;;;10.04;49.36
14393;BME280;7281;42.678;23.372;2023-03-03T00:29:40;95142.06;;;9.92;49.84
14393;BME280;7281;42.678;23.372;2023-03-03T00:32:15;95151.31;;;9.78;50.27
14393;BME280;7281;42.678;23.372;2023-03-03T00:34:44;95130.44;;;9.61;50.60
14393;BME280;7281;42.678;23.372;2023-03-03T00:40:34;95147.66;;;9.79;50.53
14393;BME280;7281;42.678;23.372;2023-03-03T00:43:21;95133.28;;;10.03;49.87
14393;BME280;7281;42.678;23.372;2023-03-03T00:45:53;95132.34;;;10.09;49.47
14393;BME280;7281;42.678;23.372;2023-03-03T00:48:41;95121.56;;;10.32;48.88
14393;BME280;7281;42.678;23.372;2023-03-03T00:51:27;95119.75;;;10.33;49.07
14393;BME280;7281;42.678;23.372;2023-03-03T00:53:57;95118.00;;;10.43;48.76
14393;BME280;7281;42.678;23.372;2023-03-03T00:56:25;95109.91;;;10.18;49.11
14393;BME280;7281;42.678;23.372;2023-03-03T00:58:53;95116.69;;;10.14;48.90
14393;BME280;7281;42.678;23.372;2023-03-03T01:01:21;95112.97;;;9.88;49.46
14393;BME280;7281;42.678;23.372;2023-03-03T01:03:51;95105.50;;;9.75;49.97
14393;BME280;7281;42.678;23.372;2023-03-03T01:06:18;95078.31;;;9.55;50.06
14393;BME280;7281;42.678;23.372;2023-03-03T01:08:45;95095.34;;;10.05;49.87
14393;BME280;7281;42.678;23.372;2023-03-03T01:11:19;95095.28;;;10.22;49.37
14393;BME280;7281;42.678;23.372;2023-03-03T01:13:49;95100.41;;;10.12;49.67
14393;BME280;7281;42.678;23.372;2023-03-03T01:16:16;95096.75;;;9.65;50.07
14393;BME280;7281;42.678;23.372;2023-03-03T01:18:43;95092.59;;;10.17;49.43
14393;BME280;7281;42.678;23.372;2023-03-03T01:21:10;95096.38;;;10.04;49.37
14393;BME280;7281;42.678;23.372;2023-03-03T01:23:38;95087.97;;;10.02;49.45
14393;BME280;7281;42.678;23.372;2023-03-03T01:26:05;95087.38;;;10.17;49.25
14393;BME280;7281;42.678;23.372;2023-03-03T01:28:33;95097.44;;;10.30;49.14
14393;BME280;7281;42.678;23.372;2023-03-03T01:31:01;95092.09;;;10.20;49.38
14393;BME280;7281;42.678;23.372;2023-03-03T01:33:31;95090.13;;;10.32;49.04
14393;BME280;7281;42.678;23.372;2023-03-03T01:35:58;95085.09;;;10.26;49.56
14393;BME280;7281;42.678;23.372;2023-03-03T01:38:25;95088.03;;;10.29;49.06
14393;BME280;7281;42.678;23.372;2023-03-03T01:40:57;95090.94;;;10.33;49.03
14393;BME280;7281;42.678;23.372;2023-03-03T01:43:30;95083.22;;;10.21;49.11
14393;BME280;7281;42.678;23.372;2023-03-03T01:48:39;95087.72;;;10.04;49.72
14393;BME280;7281;42.678;23.372;2023-03-03T01:51:28;95075.19;;;9.79;49.83
14393;BME280;7281;42.678;23.372;2023-03-03T01:54:02;95083.72;;;9.70;50.58
14393;BME280;7281;42.678;23.372;2023-03-03T01:56:29;95080.44;;;9.58;50.84
14393;BME280;7281;42.678;23.372;2023-03-03T01:59:08;95083.66;;;9.65;50.25
14393;BME280;7281;42.678;23.372;2023-03-03T02:01:37;95079.34;;;9.54;51.03
14393;BME280;7281;42.678;23.372;2023-03-03T02:04:04;95067.88;;;9.16;51.26
14393;BME280;7281;42.678;23.372;2023-03-03T02:06:39;95076.03;;;9.20;51.74
14393;BME280;7281;42.678;23.372;2023-03-03T02:09:21;95085.38;;;9.16;51.65
14393;BME280;7281;42.678;23.372;2023-03-03T02:11:54;95069.91;;;9.31;50.86
14393;BME280;7281;42.678;23.372;2023-03-03T02:14:24;95081.56;;;9.23;51.09
14393;BME280;7281;42.678;23.372;2023-03-03T02:16:51;95074.84;;;9.28;51.39
14393;BME280;7281;42.678;23.372;2023-03-03T02:19:38;95072.75;;;9.51;50.36
14393;BME280;7281;42.678;23.372;2023-03-03T02:22:08;95073.63;;;9.35;51.05
14393;BME280;7281;42.678;23.372;2023-03-03T02:24:42;95078.66;;;9.42;50.63
14393;BME280;7281;42.678;23.372;2023-03-03T02:27:10;95081.81;;;9.44;50.33
14393;BME280;7281;42.678;23.372;2023-03-03T02:29:37;95082.28;;;9.36;50.79
14393;BME280;7281;42.678;23.372;2023-03-03T02:32:05;95086.34;;;9.27;50.70
14393;BME280;7281;42.678;23.372;2023-03-03T02:34:45;95084.47;;;9.05;51.41
14393;BME280;7281;42.678;23.372;2023-03-03T02:37:12;95076.94;;;9.09;51.83
14393;BME280;7281;42.678;23.372;2023-03-03T02:39:39;95075.88;;;9.27;51.30
14393;BME280;7281;42.678;23.372;2023-03-03T02:42:11;95072.09;;;9.17;51.36
14393;BME280;7281;42.678;23.372;2023-03-03T02:44:44;95069.06;;;9.26;50.90
14393;BME280;7281;42.678;23.372;2023-03-03T02:47:11;95080.00;;;9.23;51.04
14393;BME280;7281;42.678;23.372;2023-03-03T02:49:38;95079.69;;;9.19;51.56
14393;BME280;7281;42.678;23.372;2023-03-03T02:52:07;95070.75;;;9.37;51.04
14393;BME280;7281;42.678;23.372;2023-03-03T02:54:40;95073.31;;;9.32;51.33
14393;BME280;7281;42.678;23.372;2023-03-03T02:57:07;95080.84;;;9.50;51.06
14393;BME280;7281;42.678;23.372;2023-03-03T02:59:34;95074.97;;;9.38;51.36
14393;BME280;7281;42.678;23.372;2023-03-03T03:02:08;95076.00;;;9.37;51.04
14393;BME280;7281;42.678;23.372;2023-03-03T03:04:35;95067.84;;;9.55;51.03
14393;BME280;7281;42.678;23.372;2023-03-03T03:07:03;95072.59;;;9.58;50.67
14393;BME280;7281;42.678;23.372;2023-03-03T03:09:32;95069.84;;;9.69;50.36
14393;BME280;7281;42.678;23.372;2023-03-03T03:12:00;95069.66;;;9.76;50.09
14393;BME280;7281;42.678;23.372;2023-03-03T03:14:31;95070.59;;;9.65;50.64
14393;BME280;7281;42.678;23.372;2023-03-03T03:16:58;95069.84;;;9.48;50.67
14393;BME280;7281;42.678;23.372;2023-03-03T03:19:26;95069.59;;;9.49;51.06
14393;BME280;7281;42.678;23.372;2023-03-03T03:21:55;95068.97;;;9.64;50.46
14393;BME280;7281;42.678;23.372;2023-03-03T03:24:22;95057.88;;;9.52;50.34
14393;BME280;7281;42.678;23.372;2023-03-03T03:26:56;95065.75;;;9.78;50.31
14393;BME280;7281;42.678;23.372;2023-03-03T03:29:25;95061.94;;;9.91;50.17
14393;BME280;7281;42.678;23.372;2023-03-03T03:31:52;95054.63;;;9.93;49.72
14393;BME280;7281;42.678;23.372;2023-03-03T03:34:18;95065.34;;;9.65;50.01
14393;BME280;7281;42.678;23.372;2023-03-03T03:36:46;95054.28;;;9.58;50.52
14393;BME280;7281;42.678;23.372;2023-03-03T03:39:15;95054.44;;;9.73;50.25
14393;BME280;7281;42.678;23.372;2023-03-03T03:41:45;95055.13;;;9.63;50.74
14393;BME280;7281;42.678;23.372;2023-03-03T03:44:12;95055.84;;;9.59;50.81
14393;BME280;7281;42.678;23.372;2023-03-03T03:46:39;95040.44;;;9.36;51.40
14393;BME280;7281;42.678;23.372;2023-03-03T03:49:07;95047.28;;;9.42;50.86
14393;BME280;7281;42.678;23.372;2023-03-03T03:51:34;95036.34;;;9.45;50.83
14393;BME280;7281;42.678;23.372;2023-03-03T03:54:04;95038.44;;;9.69;50.41
14393;BME280;7281;42.678;23.372;2023-03-03T03:56:33;95028.13;;;9.58;51.02
14393;BME280;7281;42.678;23.372;2023-03-03T03:59:02;95042.78;;;9.85;50.62
14393;BME280;7281;42.678;23.372;2023-03-03T04:01:31;95044.41;;;9.65;51.20
14393;BME280;7281;42.678;23.372;2023-03-03T04:03:58;95039.81;;;9.77;50.94
14393;BME280;7281;42.678;23.372;2023-03-03T04:06:25;95036.63;;;9.70;51.09
14393;BME280;7281;42.678;23.372;2023-03-03T04:08:54;95016.72;;;9.69;51.02
14393;BME280;7281;42.678;23.372;2023-03-03T04:11:22;95039.44;;;9.63;52.03
14393;BME280;7281;42.678;23.372;2023-03-03T04:13:48;95040.50;;;9.67;51.34
14393;BME280;7281;42.678;23.372;2023-03-03T04:16:16;95033.09;;;9.86;51.61
14393;BME280;7281;42.678;23.372;2023-03-03T04:18:44;95032.63;;;9.89;51.59
14393;BME280;7281;42.678;23.372;2023-03-03T04:21:14;95028.47;;;9.93;51.17
14393;BME280;7281;42.678;23.372;2023-03-03T04:23:43;95036.91;;;10.00;50.81
14393;BME280;7281;42.678;23.372;2023-03-03T04:26:10;95024.28;;;9.92;50.90
14393;BME280;7281;42.678;23.372;2023-03-03T04:28:38;95038.25;;;9.76;51.72
14393;BME280;7281;42.678;23.372;2023-03-03T04:31:06;95036.38;;;9.71;51.86
14393;BME280;7281;42.678;23.372;2023-03-03T04:33:33;95040.31;;;9.74;51.88
14393;BME280;7281;42.678;23.372;2023-03-03T04:36:03;95031.44;;;9.75;51.95
14393;BME280;7281;42.678;23.372;2023-03-03T04:38:30;95033.69;;;9.66;52.23
14393;BME280;7281;42.678;23.372;2023-03-03T04:40:58;95025.00;;;9.61;52.56
14393;BME280;7281;42.678;23.372;2023-03-03T04:43:27;95033.09;;;9.59;52.52
14393;BME280;7281;42.678;23.372;2023-03-03T04:45:55;95033.41;;;9.63;52.20
14393;BME280;7281;42.678;23.372;2023-03-03T04:48:22;95036.44;;;9.55;52.98
14393;BME280;7281;42.678;23.372;2023-03-03T04:50:49;95022.06;;;9.52;52.94
14393;BME280;7281;42.678;23.372;2023-03-03T04:53:16;95009.69;;;9.48;52.45
14393;BME280;7281;42.678;23.372;2023-03-03T04:55:43;95036.34;;;9.45;53.35
14393;BME280;7281;42.678;23.372;2023-03-03T04:58:10;95028.97;;;9.63;52.95
14393;BME280;7281;42.678;23.372;2023-03-03T05:00:38;95030.25;;;9.61;52.50
14393;BME280;7281;42.678;23.372;2023-03-03T05:03:07;95027.56;;;9.56;52.40
14393;BME280;7281;42.678;23.372;2023-03-03T05:05:39;95040.22;;;9.64;52.59
14393;BME280;7281;42.678;23.372;2023-03-03T05:08:06;95036.94;;;9.52;52.63
14393;BME280;7281;42.678;23.372;2023-03-03T05:10:33;95034.00;;;9.70;52.60
14393;BME280;7281;42.678;23.372;2023-03-03T05:13:00;95042.41;;;9.72;52.49
14393;BME280;7281;42.678;23.372;2023-03-03T05:15:27;95045.50;;;9.69;52.78
14393;BME280;7281;42.678;23.372;2023-03-03T05:17:54;95037.88;;;9.67;52.65
14393;BME280;7281;42.678;23.372;2023-03-03T05:20:23;95041.00;;;9.91;52.42
14393;BME280;7281;42.678;23.372;2023-03-03T05:22:50;95048.94;;;9.96;52.10
14393;BME280;7281;42.678;23.372;2023-03-03T05:25:18;95053.34;;;10.17;51.65
14393;BME280;7281;42.678;23.372;2023-03-03T05:27:45;95050.31;;;10.30;51.25
14393;BME280;7281;42.678;23.372;2023-03-03T05:30:12;95039.16;;;10.13;51.57
14393;BME280;7281;42.678;23.372;2023-03-03T05:32:39;95053.94;;;10.02;51.87
14393;BME280;7281;42.678;23.372;2023-03-03T05:35:06;95046.94;;;10.08;51.67
14393;BME280;7281;42.678;23.372;2023-03-03T05:37:33;95030.25;;;10.09;51.68
14393;BME280;7281;42.678;23.372;2023-03-03T05:40:00;95049.81;;;10.06;52.19
14393;BME280;7281;42.678;23.372;2023-03-03T05:42:27;95035.25;;;9.89;51.62
14393;BME280;7281;42.678;23.372;2023-03-03T05:44:54;95052.88;;;9.98;51.82
14393;BME280;7281;42.678;23.372;2023-03-03T05:47:20;95040.34;;;10.05;51.91
14393;BME280;7281;42.678;23.372;2023-03-03T05:49:47;95053.16;;;10.02;51.79
14393;BME280;7281;42.678;23.372;2023-03-03T05:52:15;95062.00;;;9.96;51.72
14393;BME280;7281;42.678;23.372;2023-03-03T05:54:42;95054.63;;;9.93;52.50
14393;BME280;7281;42.678;23.372;2023-03-03T05:57:09;95061.72;;;10.19;51.75
14393;BME280;7281;42.678;23.372;2023-03-03T05:59:37;95045.75;;;9.94;52.32
14393;BME280;7281;42.678;23.372;2023-03-03T06:02:04;95058.47;;;10.07;52.04
14393;BME280;7281;42.678;23.372;2023-03-03T06:04:32;95053.00;;;10.40;52.22
14393;BME280;7281;42.678;23.372;2023-03-03T06:06:59;95030.66;;;9.53;52.19
14393;BME280;7281;42.678;23.372;2023-03-03T06:09:26;95029.56;;;9.97;52.10
14393;BME280;7281;42.678;23.372;2023-03-03T06:11:53;95053.28;;;10.12;52.34
14393;BME280;7281;42.678;23.372;2023-03-03T06:14:21;95065.44;;;10.23;52.08
14393;BME280;7281;42.678;23.372;2023-03-03T06:16:52;95052.69;;;10.05;53.36
14393;BME280;7281;42.678;23.372;2023-03-03T06:19:18;95059.16;;;10.24;52.15
14393;BME280;7281;42.678;23.372;2023-03-03T06:21:45;95066.59;;;10.37;52.26
14393;BME280;7281;42.678;23.372;2023-03-03T06:24:12;95056.69;;;10.44;51.99
14393;BME280;7281;42.678;23.372;2023-03-03T06:26:39;95070.44;;;10.56;51.53
14393;BME280;7281;42.678;23.372;2023-03-03T06:29:06;95071.06;;;10.10;52.24
14393;BME280;7281;42.678;23.372;2023-03-03T06:31:33;95072.34;;;10.34;51.98
14393;BME280;7281;42.678;23.372;2023-03-03T06:34:00;95058.19;;;10.35;51.95
14393;BME280;7281;42.678;23.372;2023-03-03T06:36:27;95073.38;;;10.33;52.33
14393;BME280;7281;42.678;23.372;2023-03-03T06:38:54;95057.88;;;10.58;51.92
14393;BME280;7281;42.678;23.372;2023-03-03T06:41:20;95066.09;;;10.40;51.74
14393;BME280;7281;42.678;23.372;2023-03-03T06:43:47;95066.78;;;10.62;51.45
14393;BME280;7281;42.678;23.372;2023-03-03T06:46:14;95076.16;;;10.53;51.81
14393;BME280;7281;42.678;23.372;2023-03-03T06:48:42;95076.56;;;10.40;52.06
14393;BME280;7281;42.678;23.372;2023-03-03T06:51:25;95061.00;;;10.60;51.37
14393;BME280;7281;42.678;23.372;2023-03-03T06:54:01;95056.31;;;10.62;51.90
14393;BME280;7281;42.678;23.372;2023-03-03T06:56:35;95068.84;;;10.55;51.87
14393;BME280;7281;42.678;23.372;2023-03-03T06:59:09;95068.41;;;10.68;51.63
14393;BME280;7281;42.678;23.372;2023-03-03T07:01:37;95074.66;;;10.62;51.14
14393;BME280;7281;42.678;23.372;2023-03-03T07:04:31;95073.44;;;10.75;51.53
14393;BME280;7281;42.678;23.372;2023-03-03T07:07:09;95075.34;;;10.84;51.51
14393;BME280;7281;42.678;23.372;2023-03-03T07:09:36;95077.81;;;10.64;51.68
14393;BME280;7281;42.678;23.372;2023-03-03T07:12:12;95081.66;;;10.52;51.28
14393;BME280;7281;42.678;23.372;2023-03-03T07:14:46;95084.22;;;10.78;51.85
14393;BME280;7281;42.678;23.372;2023-03-03T07:17:19;95071.16;;;10.83;51.06
14393;BME280;7281;42.678;23.372;2023-03-03T07:19:46;95071.00;;;11.00;50.97
14393;BME280;7281;42.678;23.372;2023-03-03T07:22:18;95073.09;;;10.98;51.24
14393;BME280;7281;42.678;23.372;2023-03-03T07:24:48;95073.00;;;10.88;51.05
14393;BME280;7281;42.678;23.372;2023-03-03T07:29:50;95074.72;;;10.67;51.31
14393;BME280;7281;42.678;23.372;2023-03-03T07:32:34;95073.25;;;10.81;51.42
14393;BME280;7281;42.678;23.372;2023-03-03T07:37:48;95069.03;;;10.80;51.94
14393;BME280;7281;42.678;23.372;2023-03-03T07:40:30;95065.53;;;11.06;51.32
14393;BME280;7281;42.678;23.372;2023-03-03T07:43:36;95064.06;;;11.26;50.37
14393;BME280;7281;42.678;23.372;2023-03-03T07:46:45;95064.56;;;11.22;50.78
14393;BME280;7281;42.678;23.372;2023-03-03T07:49:21;95068.56;;;10.88;51.21
14393;BME280;7281;42.678;23.372;2023-03-03T07:51:55;95071.75;;;10.95;51.09
14393;BME280;7281;42.678;23.372;2023-03-03T07:54:35;95063.97;;;11.05;50.30
14393;BME280;7281;42.678;23.372;2023-03-03T07:59:37;95068.16;;;11.11;50.17
14393;BME280;7281;42.678;23.372;2023-03-03T08:04:57;95055.84;;;11.07;50.78
14393;BME280;7281;42.678;23.372;2023-03-03T08:07:23;95054.50;;;11.04;51.07
14393;BME280;7281;42.678;23.372;2023-03-03T08:10:00;95055.56;;;11.03;51.02
14393;BME280;7281;42.678;23.372;2023-03-03T08:12:37;95050.09;;;11.15;50.25
14393;BME280;7281;42.678;23.372;2023-03-03T08:15:31;95054.50;;;11.09;50.68
14393;BME280;7281;42.678;23.372;2023-03-03T08:18:18;95045.66;;;11.20;50.18
14393;BME280;7281;42.678;23.372;2023-03-03T08:20:48;95053.50;;;11.15;50.16
14393;BME280;7281;42.678;23.372;2023-03-03T08:23:17;95057.13;;;10.04;51.23
14393;BME280;7281;42.678;23.372;2023-03-03T08:25:46;95057.94;;;10.68;51.09
14393;BME280;7281;42.678;23.372;2023-03-03T08:28:14;95029.69;;;10.80;50.21
14393;BME280;7281;42.678;23.372;2023-03-03T08:30:41;95049.78;;;11.06;50.55
14393;BME280;7281;42.678;23.372;2023-03-03T08:33:10;95041.44;;;11.14;50.70
14393;BME280;7281;42.678;23.372;2023-03-03T08:35:38;95049.28;;;11.09;50.05
14393;BME280;7281;42.678;23.372;2023-03-03T08:38:05;95048.44;;;11.04;50.27
14393;BME280;7281;42.678;23.372;2023-03-03T08:40:33;95047.19;;;11.11;50.51
14393;BME280;7281;42.678;23.372;2023-03-03T08:43:01;95043.53;;;11.07;50.22
14393;BME280;7281;42.678;23.372;2023-03-03T08:45:28;95044.34;;;11.13;49.99
14393;BME280;7281;42.678;23.372;2023-03-03T08:47:55;95048.59;;;11.29;50.34
14393;BME280;7281;42.678;23.372;2023-03-03T08:50:26;95048.34;;;11.36;49.75
14393;BME280;7281;42.678;23.372;2023-03-03T08:52:55;95050.34;;;11.13;50.43
14393;BME280;7281;42.678;23.372;2023-03-03T08:55:22;95045.72;;;11.31;50.08
14393;BME280;7281;42.678;23.372;2023-03-03T08:57:49;95056.03;;;11.00;50.06
14393;BME280;7281;42.678;23.372;2023-03-03T09:00:16;95046.34;;;11.48;49.71
14393;BME280;7281;42.678;23.372;2023-03-03T09:02:44;95047.16;;;11.01;50.39
14393;BME280;7281;42.678;23.372;2023-03-03T09:05:11;95055.69;;;11.34;49.92
14393;BME280;7281;42.678;23.372;2023-03-03T09:07:40;95043.66;;;11.43;49.81
14393;BME280;7281;42.678;23.372;2023-03-03T09:10:09;95038.53;;;11.68;49.76
14393;BME280;7281;42.678;23.372;2023-03-03T09:12:47;95037.00;;;11.92;49.63
14393;BME280;7281;42.678;23.372;2023-03-03T09:15:26;95034.97;;;12.09;49.62
14393;BME280;7281;42.678;23.372;2023-03-03T09:17:57;95028.66;;;12.05;50.05
14393;BME280;7281;42.678;23.372;2023-03-03T09:28:38;95032.84;;;12.21;48.44
14393;BME280;7281;42.678;23.372;2023-03-03T09:31:20;95035.41;;;11.76;49.25
14393;BME280;7281;42.678;23.372;2023-03-03T09:33:48;95046.34;;;11.01;48.58
14393;BME280;7281;42.678;23.372;2023-03-03T09:36:23;95031.53;;;11.32;49.56
14393;BME280;7281;42.678;23.372;2023-03-03T09:38:51;95038.03;;;11.71;49.59
14393;BME280;7281;42.678;23.372;2023-03-03T09:44:27;95040.22;;;12.04;49.09
14393;BME280;7281;42.678;23.372;2023-03-03T09:53:14;95033.16;;;11.43;49.17
14393;BME280;7281;42.678;23.372;2023-03-03T09:56:14;95035.50;;;12.11;49.08
14393;BME280;7281;42.678;23.372;2023-03-03T09:58:59;95027.09;;;12.39;47.63
14393;BME280;7281;42.678;23.372;2023-03-03T10:04:30;95031.81;;;12.27;47.30
14393;BME280;7281;42.678;23.372;2023-03-03T10:15:26;95023.94;;;12.27;46.65
14393;BME280;7281;42.678;23.372;2023-03-03T10:21:10;95004.22;;;12.55;47.07
14393;BME280;7281;42.678;23.372;2023-03-03T10:23:55;95019.19;;;12.74;46.66
14393;BME280;7281;42.678;23.372;2023-03-03T10:29:55;95008.94;;;12.68;44.86
14393;BME280;7281;42.678;23.372;2023-03-03T10:33:27;95008.72;;;12.44;45.53
14393;BME280;7281;42.678;23.372;2023-03-03T10:38:54;95005.09;;;11.38;47.58
14393;BME280;7281;42.678;23.372;2023-03-03T10:55:25;94991.38;;;12.33;47.34
14393;BME280;7281;42.678;23.372;2023-03-03T11:06:35;94990.81;;;12.66;46.65
14393;BME280;7281;42.678;23.372;2023-03-03T11:10:02;94983.97;;;12.60;46.60
14393;BME280;7281;42.678;23.372;2023-03-03T11:25:56;94967.97;;;12.42;46.41
14393;BME280;7281;42.678;23.372;2023-03-03T11:28:58;94970.78;;;11.60;48.54
14393;BME280;7281;42.678;23.372;2023-03-03T11:34:05;94968.25;;;12.05;47.47
14393;BME280;7281;42.678;23.372;2023-03-03T11:36:39;94946.19;;;11.91;47.44
14393;BME280;7281;42.678;23.372;2023-03-03T11:39:10;94958.63;;;11.39;48.18
14393;BME280;7281;42.678;23.372;2023-03-03T11:44:38;94963.00;;;11.95;47.92
14393;BME280;7281;42.678;23.372;2023-03-03T11:50:20;94964.78;;;11.79;48.67
14393;BME280;7281;42.678;23.372;2023-03-03T11:53:00;94958.56;;;11.08;49.90
14393;BME280;7281;42.678;23.372;2023-03-03T11:55:37;94956.38;;;11.77;49.73
14393;BME280;7281;42.678;23.372;2023-03-03T11:58:19;94953.78;;;11.92;48.90
14393;BME280;7281;42.678;23.372;2023-03-03T12:01:02;94964.19;;;11.42;49.84
14393;BME280;7281;42.678;23.372;2023-03-03T12:09:41;94951.16;;;11.67;49.49
14393;BME280;7281;42.678;23.372;2023-03-03T12:12:20;94954.06;;;11.86;49.33
14393;BME280;7281;42.678;23.372;2023-03-03T12:15:00;94955.63;;;11.87;48.89
14393;BME280;7281;42.678;23.372;2023-03-03T12:21:06;94943.03;;;12.09;49.98
14393;BME280;7281;42.678;23.372;2023-03-03T12:29:06;94949.81;;;12.60;48.97
14393;BME280;7281;42.678;23.372;2023-03-03T12:32:25;94951.38;;;12.61;48.96
14393;BME280;7281;42.678;23.372;2023-03-03T12:34:52;94951.91;;;12.58;48.73
14393;BME280;7281;42.678;23.372;2023-03-03T12:40:32;94959.31;;;12.36;48.11
14393;BME280;7281;42.678;23.372;2023-03-03T12:43:37;94955.09;;;12.35;48.42
14393;BME280;7281;42.678;23.372;2023-03-03T12:46:08;94958.72;;;12.59;48.25
14393;BME280;7281;42.678;23.372;2023-03-03T12:48:42;94961.34;;;12.74;48.05
14393;BME280;7281;42.678;23.372;2023-03-03T12:57:26;94957.72;;;12.25;49.69
14393;BME280;7281;42.678;23.372;2023-03-03T13:00:28;94961.16;;;12.41;49.39
14393;BME280;7281;42.678;23.372;2023-03-03T13:03:13;94949.28;;;12.48;49.21
14393;BME280;7281;42.678;23.372;2023-03-03T13:06:10;94955.06;;;12.50;50.10
14393;BME280;7281;42.678;23.372;2023-03-03T13:14:36;94953.28;;;12.26;51.24
14393;BME280;7281;42.678;23.372;2023-03-03T13:20:24;94947.25;;;11.95;51.20
14393;BME280;7281;42.678;23.372;2023-03-03T13:23:09;94943.56;;;12.06;50.84
14393;BME280;7281;42.678;23.372;2023-03-03T13:25:48;94941.44;;;12.08;50.85
14393;BME280;7281;42.678;23.372;2023-03-03T13:28:20;94955.09;;;11.80;51.96
14393;BME280;7281;42.678;23.372;2023-03-03T13:30:54;94944.88;;;12.03;52.52
14393;BME280;7281;42.678;23.372;2023-03-03T13:33:25;94947.75;;;12.02;51.96
14393;BME280;7281;42.678;23.372;2023-03-03T13:35:58;94946.69;;;11.78;52.12
14393;BME280;7281;42.678;23.372;2023-03-03T13:38:46;94948.28;;;12.14;51.01
14393;BME280;7281;42.678;23.372;2023-03-03T13:46:52;94945.38;;;12.15;50.26
14393;BME280;7281;42.678;23.372;2023-03-03T13:52:19;94944.06;;;11.88;50.89
14393;BME280;7281;42.678;23.372;2023-03-03T14:00:33;94948.00;;;11.85;51.45
14393;BME280;7281;42.678;23.372;2023-03-03T14:06:03;94945.09;;;11.67;51.51
14393;BME280;7281;42.678;23.372;2023-03-03T14:16:19;94942.50;;;12.22;50.83
14393;BME280;7281;42.678;23.372;2023-03-03T14:19:01;94935.13;;;12.34;50.21
14393;BME280;7281;42.678;23.372;2023-03-03T14:21:34;94937.75;;;12.19;50.39
14393;BME280;7281;42.678;23.372;2023-03-03T14:24:16;94934.91;;;12.00;51.24
14393;BME280;7281;42.678;23.372;2023-03-03T14:26:48;94933.06;;;12.11;51.67
14393;BME280;7281;42.678;23.372;2023-03-03T14:29:30;94930.44;;;12.26;51.41
14393;BME280;7281;42.678;23.372;2023-03-03T14:32:01;94930.69;;;12.14;51.85
14393;BME280;7281;42.678;23.372;2023-03-03T14:34:58;94938.28;;;12.16;51.47
14393;BME280;7281;42.678;23.372;2023-03-03T14:37:40;94941.44;;;12.33;51.49
14393;BME280;7281;42.678;23.372;2023-03-03T14:45:39;94925.16;;;12.31;51.50
14393;BME280;7281;42.678;23.372;2023-03-03T14:48:21;94922.50;;;12.36;51.05
14393;BME280;7281;42.678;23.372;2023-03-03T14:50:55;94929.63;;;12.31;51.01
14393;BME280;7281;42.678;23.372;2023-03-03T14:53:33;94929.34;;;12.27;51.64
14393;BME280;7281;42.678;23.372;2023-03-03T14:58:43;94931.97;;;12.42;50.96
14393;BME280;7281;42.678;23.372;2023-03-03T15:01:29;94927.00;;;12.41;50.41
14393;BME280;7281;42.678;23.372;2023-03-03T15:06:49;94913.56;;;12.47;50.74
14393;BME280;7281;42.678;23.372;2023-03-03T15:09:27;94925.63;;;12.48;50.91
14393;BME280;7281;42.678;23.372;2023-03-03T15:12:25;94919.06;;;12.61;49.96
14393;BME280;7281;42.678;23.372;2023-03-03T15:15:04;94916.97;;;12.43;50.54
14393;BME280;7281;42.678;23.372;2023-03-03T15:17:57;94919.34;;;12.44;49.94
14393;BME280;7281;42.678;23.372;2023-03-03T15:20:38;94921.97;;;12.49;50.42
14393;BME280;7281;42.678;23.372;2023-03-03T15:34:23;94927.78;;;12.46;50.66
14393;BME280;7281;42.678;23.372;2023-03-03T15:36:33;94930.38;;;12.51;50.17
14393;BME280;7281;42.678;23.372;2023-03-03T15:39:57;94931.91;;;12.72;49.49
14393;BME280;7281;42.678;23.372;2023-03-03T15:42:17;94929.31;;;12.47;49.65
14393;BME280;7281;42.678;23.372;2023-03-03T15:45:01;94927.47;;;12.43;50.24
14393;BME280;7281;42.678;23.372;2023-03-03T15:50:27;94929.28;;;12.67;50.09
14393;BME280;7281;42.678;23.372;2023-03-03T16:01:28;94931.44;;;12.55;50.43
14393;BME280;7281;42.678;23.372;2023-03-03T16:04:04;94934.03;;;12.50;50.83
14393;BME280;7281;42.678;23.372;2023-03-03T16:06:46;94947.97;;;12.56;50.56
14393;BME280;7281;42.678;23.372;2023-03-03T16:25:53;94965.88;;;12.23;50.97
14393;BME280;7281;42.678;23.372;2023-03-03T16:28:38;94964.03;;;12.19;51.09
14393;BME280;7281;42.678;23.372;2023-03-03T16:31:20;94955.91;;;12.10;50.92
14393;BME280;7281;42.678;23.372;2023-03-03T16:42:28;94964.28;;;12.53;50.67
14393;BME280;7281;42.678;23.372;2023-03-03T16:45:26;94965.59;;;12.55;50.98
14393;BME280;7281;42.678;23.372;2023-03-03T17:01:34;94999.22;;;12.28;50.70
14393;BME280;7281;42.678;23.372;2023-03-03T17:04:30;94984.00;;;12.25;50.86
14393;BME280;7281;42.678;23.372;2023-03-03T17:10:24;95002.13;;;12.21;51.73
14393;BME280;7281;42.678;23.372;2023-03-03T17:30:05;95018.41;;;12.03;51.43
14393;BME280;7281;42.678;23.372;2023-03-03T17:40:47;95027.81;;;11.79;51.79
14393;BME280;7281;42.678;23.372;2023-03-03T17:43:23;95019.47;;;12.12;50.90
14393;BME280;7281;42.678;23.372;2023-03-03T17:45:54;95027.06;;;12.19;50.78
14393;BME280;7281;42.678;23.372;2023-03-03T17:48:40;95034.97;;;12.29;50.44
14393;BME280;7281;42.678;23.372;2023-03-03T17:51:35;95030.78;;;12.33;49.96
14393;BME280;7281;42.678;23.372;2023-03-03T17:54:17;95038.09;;;11.91;51.40
14393;BME280;7281;42.678;23.372;2023-03-03T17:59:54;95041.25;;;12.28;50.45